createdAt,value
2023-07-17T00:00:03.812Z,16.34
2023-07-17T00:01:03.766Z,16.34
2023-07-17T00:02:03.715Z,16.33
2023-07-17T00:03:03.813Z,16.30
2023-07-17T00:04:03.854Z,16.27
2023-07-17T00:05:03.688Z,16.27
2023-07-17T00:06:03.807Z,16.25
2023-07-17T00:07:03.661Z,16.23
2023-07-17T00:08:03.699Z,16.23
2023-07-17T00:09:03.648Z,16.23
2023-07-17T00:10:03.646Z,16.24
2023-07-17T00:11:03.622Z,16.28
2023-07-17T00:12:03.608Z,16.38
2023-07-17T00:13:03.602Z,16.43
2023-07-17T00:14:03.593Z,16.48
2023-07-17T00:15:03.582Z,16.50
2023-07-17T00:16:03.573Z,16.52
2023-07-17T00:17:03.648Z,16.56
2023-07-17T00:18:03.587Z,16.57
2023-07-17T00:19:03.526Z,16.56
2023-07-17T00:20:03.520Z,16.53
2023-07-17T00:21:03.511Z,16.52
2023-07-17T00:22:03.507Z,16.50
2023-07-17T00:23:05.224Z,16.48
2023-07-17T00:24:03.476Z,16.45
2023-07-17T00:25:03.474Z,16.42
2023-07-17T00:26:03.521Z,16.41
2023-07-17T00:27:03.528Z,16.35
2023-07-17T00:28:03.436Z,16.31
2023-07-17T00:29:03.408Z,16.31
2023-07-17T00:30:03.393Z,16.28
2023-07-17T00:31:03.463Z,16.28
2023-07-17T00:32:03.522Z,16.27
2023-07-17T00:33:03.459Z,16.25
2023-07-17T00:34:03.367Z,16.25
2023-07-17T00:35:03.588Z,16.25
2023-07-17T00:36:03.364Z,16.27
2023-07-17T00:37:03.373Z,16.30
2023-07-17T00:38:03.315Z,16.38
2023-07-17T00:39:03.366Z,16.35
2023-07-17T00:40:03.348Z,16.38
2023-07-17T00:41:03.307Z,16.39
2023-07-17T00:42:03.265Z,16.42
2023-07-17T00:43:03.252Z,16.43
2023-07-17T00:44:03.233Z,16.43
2023-07-17T00:45:03.241Z,16.45
2023-07-17T00:46:03.233Z,16.45
2023-07-17T00:47:03.323Z,16.45
2023-07-17T00:48:03.250Z,16.43
2023-07-17T00:49:03.193Z,16.45
2023-07-17T00:50:03.233Z,16.46
2023-07-17T00:51:03.164Z,16.46
2023-07-17T00:52:03.146Z,16.46
2023-07-17T00:53:03.146Z,16.49
2023-07-17T00:54:03.153Z,16.49
2023-07-17T00:55:03.129Z,16.50
2023-07-17T00:56:03.155Z,16.52
2023-07-17T00:57:03.093Z,16.53
2023-07-17T00:58:03.089Z,16.56
2023-07-17T00:59:03.091Z,16.53
2023-07-17T01:00:03.059Z,16.58
2023-07-17T01:01:03.100Z,16.57
2023-07-17T01:02:03.251Z,16.60
2023-07-17T01:03:03.119Z,16.61
2023-07-17T01:04:03.072Z,16.61
2023-07-17T01:05:03.016Z,16.63
2023-07-17T01:06:03.011Z,16.64
2023-07-17T01:07:02.984Z,16.66
2023-07-17T01:08:02.982Z,16.66
2023-07-17T01:09:02.966Z,16.70
2023-07-17T01:10:02.975Z,16.71
2023-07-17T01:11:02.947Z,16.73
2023-07-17T01:12:02.928Z,16.75
2023-07-17T01:13:02.948Z,16.83
2023-07-17T01:14:02.923Z,16.93
2023-07-17T01:15:02.909Z,16.94
2023-07-17T01:16:02.947Z,16.98
2023-07-17T01:17:03.069Z,17.01
2023-07-17T01:18:02.950Z,17.06
2023-07-17T01:19:02.850Z,17.11
2023-07-17T01:20:02.896Z,17.14
2023-07-17T01:21:02.858Z,17.16
2023-07-17T01:22:23.837Z,17.18
2023-07-17T01:23:02.912Z,17.18
2023-07-17T01:24:02.824Z,17.18
2023-07-17T01:25:02.784Z,17.19
2023-07-17T01:26:02.871Z,17.21
2023-07-17T01:27:02.771Z,17.22
2023-07-17T01:28:02.830Z,17.25
2023-07-17T01:29:02.732Z,17.26
2023-07-17T01:30:02.898Z,17.30
2023-07-17T01:31:02.793Z,17.34
2023-07-17T01:32:02.850Z,17.36
2023-07-17T01:33:02.806Z,17.38
2023-07-17T01:34:02.755Z,17.49
2023-07-17T01:35:03.304Z,17.52
2023-07-17T01:36:02.789Z,17.49
2023-07-17T01:37:02.653Z,17.46
2023-07-17T01:38:02.687Z,17.48
2023-07-17T01:39:02.625Z,17.49
2023-07-17T01:40:02.617Z,17.49
2023-07-17T01:41:02.652Z,17.48
2023-07-17T01:42:02.728Z,17.49
2023-07-17T01:43:02.581Z,17.48
2023-07-17T01:44:02.598Z,17.46
2023-07-17T01:45:02.561Z,17.44
2023-07-17T01:46:02.598Z,17.43
2023-07-17T01:47:02.550Z,17.43
2023-07-17T01:48:02.649Z,17.38
2023-07-17T01:49:02.512Z,17.34
2023-07-17T01:50:02.576Z,17.33
2023-07-17T01:51:02.530Z,17.30
2023-07-17T01:52:02.578Z,17.26
2023-07-17T01:53:02.471Z,17.21
2023-07-17T01:54:02.509Z,17.18
2023-07-17T01:55:02.486Z,17.12
2023-07-17T01:56:02.469Z,17.11
2023-07-17T01:57:02.433Z,17.04
2023-07-17T01:58:02.435Z,17.03
2023-07-17T01:59:02.421Z,17.00
2023-07-17T02:00:02.650Z,16.97
2023-07-17T02:01:02.387Z,16.96
2023-07-17T02:02:02.411Z,16.94
2023-07-17T02:03:02.410Z,16.93
2023-07-17T02:04:02.395Z,16.89
2023-07-17T02:05:02.401Z,16.86
2023-07-17T02:06:02.350Z,16.82
2023-07-17T02:07:02.320Z,16.81
2023-07-17T02:08:02.361Z,16.76
2023-07-17T02:09:02.307Z,16.71
2023-07-17T02:10:02.334Z,16.67
2023-07-17T02:11:02.320Z,16.63
2023-07-17T02:12:02.368Z,16.58
2023-07-17T02:13:02.263Z,16.56
2023-07-17T02:14:02.268Z,16.53
2023-07-17T02:15:02.238Z,16.52
2023-07-17T02:16:02.279Z,16.50
2023-07-17T02:17:02.253Z,16.50
2023-07-17T02:18:02.333Z,16.49
2023-07-17T02:19:02.208Z,16.49
2023-07-17T02:20:02.358Z,16.49
2023-07-17T02:21:02.155Z,16.50
2023-07-17T02:22:02.201Z,16.50
2023-07-17T02:23:02.161Z,16.52
2023-07-17T02:24:02.177Z,16.52
2023-07-17T02:25:02.109Z,16.50
2023-07-17T02:26:02.120Z,16.52
2023-07-17T02:27:02.103Z,16.50
2023-07-17T02:28:02.115Z,16.49
2023-07-17T02:29:02.079Z,16.48
2023-07-17T02:30:02.142Z,16.45
2023-07-17T02:31:02.057Z,16.39
2023-07-17T02:32:02.069Z,16.38
2023-07-17T02:33:02.271Z,16.34
2023-07-17T02:34:02.026Z,16.30
2023-07-17T02:35:02.007Z,16.28
2023-07-17T02:36:02.003Z,16.24
2023-07-17T02:37:01.993Z,16.20
2023-07-17T02:38:02.221Z,16.15
2023-07-17T02:39:01.953Z,16.11
2023-07-17T02:40:02.019Z,16.08
2023-07-17T02:41:02.021Z,16.05
2023-07-17T02:42:02.413Z,16.02
2023-07-17T02:43:02.034Z,16.00
2023-07-17T02:44:02.001Z,15.96
2023-07-17T02:45:01.952Z,15.93
2023-07-17T02:46:01.938Z,15.90
2023-07-17T02:47:02.012Z,15.87
2023-07-17T02:48:02.095Z,15.83
2023-07-17T02:49:01.854Z,15.82
2023-07-17T02:50:01.841Z,15.80
2023-07-17T02:51:01.912Z,15.76
2023-07-17T02:52:01.903Z,15.74
2023-07-17T02:53:01.803Z,15.72
2023-07-17T02:54:03.212Z,15.71
2023-07-17T02:55:01.784Z,15.71
2023-07-17T02:56:02.361Z,15.68
2023-07-17T02:57:01.762Z,15.67
2023-07-17T02:58:01.750Z,15.67
2023-07-17T02:59:01.756Z,15.67
2023-07-17T03:00:01.777Z,15.67
2023-07-17T03:01:01.760Z,15.67
2023-07-17T03:02:01.820Z,15.67
2023-07-17T03:03:01.766Z,15.67
2023-07-17T03:04:01.670Z,15.68
2023-07-17T03:05:01.721Z,15.68
2023-07-17T03:06:01.657Z,15.68
2023-07-17T03:07:01.733Z,15.68
2023-07-17T03:08:01.629Z,15.67
2023-07-17T03:09:01.621Z,15.64
2023-07-17T03:10:01.619Z,15.65
2023-07-17T03:11:01.604Z,15.67
2023-07-17T03:12:01.597Z,15.67
2023-07-17T03:13:01.584Z,15.67
2023-07-17T03:14:01.587Z,15.67
2023-07-17T03:15:01.576Z,15.68
2023-07-17T03:16:01.612Z,15.67
2023-07-17T03:17:01.539Z,15.69
2023-07-17T03:18:01.577Z,15.74
2023-07-17T03:19:01.520Z,15.74
2023-07-17T03:20:01.603Z,15.75
2023-07-17T03:21:01.488Z,15.84
2023-07-17T03:22:01.479Z,15.89
2023-07-17T03:23:01.563Z,15.92
2023-07-17T03:24:01.467Z,15.97
2023-07-17T03:25:01.442Z,16.02
2023-07-17T03:26:01.611Z,16.00
2023-07-17T03:27:01.414Z,15.96
2023-07-17T03:28:01.415Z,15.92
2023-07-17T03:29:01.443Z,15.87
2023-07-17T03:30:01.403Z,15.83
2023-07-17T03:31:01.392Z,15.80
2023-07-17T03:32:01.474Z,15.74
2023-07-17T03:33:01.810Z,15.71
2023-07-17T03:34:01.426Z,15.69
2023-07-17T03:35:01.370Z,15.69
2023-07-17T03:36:01.315Z,15.67
2023-07-17T03:37:01.307Z,15.65
2023-07-17T03:38:01.492Z,15.65
2023-07-17T03:39:01.316Z,15.67
2023-07-17T03:40:01.294Z,15.69
2023-07-17T03:41:01.266Z,15.72
2023-07-17T03:42:01.281Z,15.74
2023-07-17T03:43:01.257Z,15.76
2023-07-17T03:44:01.228Z,15.78
2023-07-17T03:45:01.230Z,15.83
2023-07-17T03:46:01.206Z,15.83
2023-07-17T03:47:01.272Z,15.87
2023-07-17T03:48:01.211Z,15.87
2023-07-17T03:49:01.177Z,15.84
2023-07-17T03:50:01.163Z,15.83
2023-07-17T03:51:03.318Z,15.83
2023-07-17T03:52:01.156Z,15.83
2023-07-17T03:53:01.123Z,15.80
2023-07-17T03:54:01.115Z,15.80
2023-07-17T03:55:01.119Z,15.76
2023-07-17T03:56:01.112Z,15.74
2023-07-17T03:57:01.140Z,15.68
2023-07-17T03:58:01.094Z,15.65
2023-07-17T03:59:01.096Z,15.62
2023-07-17T04:00:01.052Z,15.64
2023-07-17T04:01:01.087Z,15.65
2023-07-17T04:02:01.039Z,15.68
2023-07-17T04:03:01.032Z,15.71
2023-07-17T04:04:01.057Z,15.72
2023-07-17T04:05:00.992Z,15.74
2023-07-17T04:06:01.026Z,15.74
2023-07-17T04:07:00.963Z,15.76
2023-07-17T04:08:00.978Z,15.76
2023-07-17T04:09:03.427Z,15.78
2023-07-17T04:10:00.932Z,15.78
2023-07-17T04:11:01.150Z,15.80
2023-07-17T04:12:00.929Z,15.82
2023-07-17T04:13:00.902Z,15.80
2023-07-17T04:14:00.889Z,15.82
2023-07-17T04:15:00.989Z,15.82
2023-07-17T04:16:00.873Z,15.82
2023-07-17T04:17:00.928Z,15.83
2023-07-17T04:18:00.892Z,15.83
2023-07-17T04:19:00.824Z,15.82
2023-07-17T04:20:00.830Z,15.86
2023-07-17T04:21:00.823Z,15.86
2023-07-17T04:22:00.796Z,15.86
2023-07-17T04:23:00.869Z,15.86
2023-07-17T04:24:00.891Z,15.83
2023-07-17T04:25:00.768Z,15.83
2023-07-17T04:26:00.755Z,15.82
2023-07-17T04:27:00.776Z,15.80
2023-07-17T04:28:00.727Z,15.76
2023-07-17T04:29:00.727Z,15.74
2023-07-17T04:30:00.723Z,15.69
2023-07-17T04:31:00.699Z,15.68
2023-07-17T04:32:00.701Z,15.64
2023-07-17T04:33:00.710Z,15.62
2023-07-17T04:34:00.688Z,15.57
2023-07-17T04:35:00.675Z,15.54
2023-07-17T04:36:00.645Z,15.53
2023-07-17T04:37:00.628Z,15.50
2023-07-17T04:38:00.637Z,15.51
2023-07-17T04:39:00.627Z,15.50
2023-07-17T04:40:00.605Z,15.51
2023-07-17T04:41:00.586Z,15.51
2023-07-17T04:42:00.571Z,15.53
2023-07-17T04:43:00.568Z,15.56
2023-07-17T04:44:00.846Z,15.56
2023-07-17T04:45:00.546Z,15.62
2023-07-17T04:46:00.525Z,15.64
2023-07-17T04:47:00.554Z,15.69
2023-07-17T04:48:00.569Z,15.74
2023-07-17T04:49:00.480Z,15.78
2023-07-17T04:50:00.501Z,15.83
2023-07-17T04:51:00.465Z,15.87
2023-07-17T04:52:00.462Z,15.92
2023-07-17T04:53:02.019Z,15.96
2023-07-17T04:54:00.464Z,16.01
2023-07-17T04:55:00.424Z,16.07
2023-07-17T04:56:00.416Z,16.09
2023-07-17T04:57:00.446Z,16.14
2023-07-17T04:58:00.412Z,16.20
2023-07-17T04:59:00.379Z,16.23
2023-07-17T05:00:00.387Z,16.27
2023-07-17T05:01:00.399Z,16.28
2023-07-17T05:02:01.324Z,16.33
2023-07-17T05:03:00.401Z,16.35
2023-07-17T05:04:00.452Z,16.39
2023-07-17T05:05:00.317Z,16.42
2023-07-17T05:06:00.333Z,16.43
2023-07-17T05:07:00.312Z,16.46
2023-07-17T05:08:00.304Z,16.48
2023-07-17T05:09:02.590Z,16.48
2023-07-17T05:10:00.264Z,16.49
2023-07-17T05:11:00.282Z,16.49
2023-07-17T05:12:00.265Z,16.49
2023-07-17T05:13:00.221Z,16.49
2023-07-17T05:14:00.257Z,16.50
2023-07-17T05:15:00.262Z,16.53
2023-07-17T05:16:00.245Z,16.57
2023-07-17T05:17:00.311Z,16.60
2023-07-17T05:18:00.306Z,16.63
2023-07-17T05:19:00.221Z,16.64
2023-07-17T05:20:00.328Z,16.67
2023-07-17T05:21:00.148Z,16.70
2023-07-17T05:22:00.135Z,16.71
2023-07-17T05:23:00.153Z,16.76
2023-07-17T05:24:00.120Z,16.81
2023-07-17T05:25:00.099Z,16.83
2023-07-17T05:26:00.100Z,16.86
2023-07-17T05:27:00.078Z,16.93
2023-07-17T05:28:00.059Z,17.00
2023-07-17T05:29:00.057Z,17.12
2023-07-17T05:30:00.064Z,17.19
2023-07-17T05:31:00.059Z,17.28
2023-07-17T05:32:00.054Z,17.41
2023-07-17T05:33:00.112Z,17.54
2023-07-17T05:34:00.029Z,17.62
2023-07-17T05:35:00.273Z,17.77
2023-07-17T05:35:59.987Z,17.90
2023-07-17T05:36:59.963Z,17.99
2023-07-17T05:37:59.947Z,18.07
2023-07-17T05:38:59.963Z,18.07
2023-07-17T05:39:59.930Z,18.11
2023-07-17T05:40:59.934Z,18.15
2023-07-17T05:41:59.938Z,18.20
2023-07-17T05:42:59.888Z,18.21
2023-07-17T05:43:59.902Z,18.21
2023-07-17T05:44:59.886Z,18.18
2023-07-17T05:46:00.023Z,18.15
2023-07-17T05:46:59.976Z,18.14
2023-07-17T05:48:00.064Z,18.11
2023-07-17T05:48:59.900Z,18.11
2023-07-17T05:49:59.889Z,18.08
2023-07-17T05:50:59.810Z,18.08
2023-07-17T05:51:59.802Z,18.07
2023-07-17T05:52:59.807Z,18.07
2023-07-17T05:53:59.792Z,18.05
2023-07-17T05:55:01.614Z,18.05
2023-07-17T05:55:59.753Z,18.08
2023-07-17T05:56:59.751Z,18.12
2023-07-17T05:57:59.745Z,18.21
2023-07-17T05:58:59.728Z,18.29
2023-07-17T05:59:59.716Z,18.37
2023-07-17T06:00:59.698Z,18.48
2023-07-17T06:01:59.715Z,18.55
2023-07-17T06:02:59.749Z,18.66
2023-07-17T06:03:59.745Z,18.75
2023-07-17T06:04:59.731Z,18.85
2023-07-17T06:05:59.637Z,18.87
2023-07-17T06:06:59.648Z,18.90
2023-07-17T06:07:59.633Z,18.92
2023-07-17T06:08:59.615Z,18.92
2023-07-17T06:09:59.597Z,18.92
2023-07-17T06:10:59.591Z,18.99
2023-07-17T06:11:59.677Z,19.06
2023-07-17T06:12:59.579Z,19.14
2023-07-17T06:13:59.578Z,19.23
2023-07-17T06:14:59.545Z,19.31
2023-07-17T06:15:59.566Z,19.44
2023-07-17T06:16:59.567Z,19.48
2023-07-17T06:17:59.581Z,19.54
2023-07-17T06:18:59.525Z,19.58
2023-07-17T06:19:59.491Z,19.61
2023-07-17T06:20:59.491Z,19.63
2023-07-17T06:21:59.486Z,19.65
2023-07-17T06:22:59.476Z,19.68
2023-07-17T06:23:59.449Z,19.73
2023-07-17T06:24:59.449Z,19.87
2023-07-17T06:25:59.436Z,19.86
2023-07-17T06:26:59.423Z,19.84
2023-07-17T06:27:59.398Z,19.83
2023-07-17T06:28:59.410Z,19.86
2023-07-17T06:29:59.396Z,19.91
2023-07-17T06:30:59.379Z,19.88
2023-07-17T06:31:59.394Z,19.86
2023-07-17T06:32:59.407Z,19.86
2023-07-17T06:33:59.332Z,19.86
2023-07-17T06:34:59.349Z,19.83
2023-07-17T06:35:59.340Z,19.80
2023-07-17T06:36:59.306Z,19.78
2023-07-17T06:37:59.296Z,19.80
2023-07-17T06:38:59.300Z,19.78
2023-07-17T06:39:59.295Z,19.83
2023-07-17T06:40:59.272Z,19.87
2023-07-17T06:41:59.263Z,19.94
2023-07-17T06:42:59.241Z,19.94
2023-07-17T06:43:59.260Z,20.06
2023-07-17T06:45:01.653Z,20.13
2023-07-17T06:45:59.223Z,20.16
2023-07-17T06:46:59.200Z,20.20
2023-07-17T06:47:59.203Z,20.31
2023-07-17T06:48:59.187Z,20.38
2023-07-17T06:49:59.167Z,20.48
2023-07-17T06:50:59.175Z,20.57
2023-07-17T06:51:59.145Z,20.54
2023-07-17T06:52:59.143Z,20.39
2023-07-17T06:53:59.182Z,20.42
2023-07-17T06:55:59.110Z,20.50
2023-07-17T06:56:59.090Z,20.57
2023-07-17T06:57:59.087Z,20.74
2023-07-17T06:58:59.061Z,20.88
2023-07-17T06:59:59.083Z,21.01
2023-07-17T07:00:59.051Z,21.12
2023-07-17T07:01:59.344Z,21.25
2023-07-17T07:02:59.079Z,21.40
2023-07-17T07:03:59.075Z,21.44
2023-07-17T07:04:59.004Z,21.62
2023-07-17T07:05:59.004Z,21.71
2023-07-17T07:06:58.990Z,21.91
2023-07-17T07:07:58.980Z,22.00
2023-07-17T07:08:58.972Z,22.12
2023-07-17T07:09:58.937Z,22.22
2023-07-17T07:10:59.124Z,22.27
2023-07-17T07:11:58.950Z,22.40
2023-07-17T07:12:58.945Z,22.45
2023-07-17T07:13:59.058Z,22.45
2023-07-17T07:14:58.952Z,22.55
2023-07-17T07:15:58.945Z,22.58
2023-07-17T07:16:58.953Z,22.61
2023-07-17T07:17:58.905Z,22.60
2023-07-17T07:18:58.848Z,22.67
2023-07-17T07:19:58.850Z,22.76
2023-07-17T07:20:58.845Z,22.80
2023-07-17T07:21:58.821Z,22.83
2023-07-17T07:22:58.868Z,22.94
2023-07-17T07:23:58.796Z,23.10
2023-07-17T07:24:58.827Z,23.16
2023-07-17T07:25:58.851Z,23.27
2023-07-17T07:26:58.868Z,23.27
2023-07-17T07:27:58.831Z,23.28
2023-07-17T07:28:58.818Z,23.33
2023-07-17T07:29:58.758Z,23.47
2023-07-17T07:30:58.863Z,23.57
2023-07-17T07:31:58.783Z,23.51
2023-07-17T07:32:58.758Z,23.50
2023-07-17T07:33:58.717Z,23.61
2023-07-17T07:34:58.707Z,23.73
2023-07-17T07:35:58.701Z,23.72
2023-07-17T07:36:58.660Z,23.76
2023-07-17T07:37:58.659Z,23.78
2023-07-17T07:38:58.648Z,23.91
2023-07-17T07:39:58.625Z,23.75
2023-07-17T07:40:58.797Z,23.83
2023-07-17T07:41:58.607Z,23.91
2023-07-17T07:42:58.613Z,23.97
2023-07-17T07:43:58.590Z,24.02
2023-07-17T07:44:58.585Z,24.08
2023-07-17T07:45:58.596Z,24.08
2023-07-17T07:46:58.562Z,24.16
2023-07-17T07:47:58.608Z,24.18
2023-07-17T07:48:58.552Z,24.06
2023-07-17T07:49:58.544Z,24.00
2023-07-17T07:50:58.532Z,24.05
2023-07-17T07:51:58.496Z,24.10
2023-07-17T07:52:58.506Z,24.16
2023-07-17T07:53:58.490Z,24.08
2023-07-17T07:55:00.721Z,24.16
2023-07-17T07:55:58.447Z,24.24
2023-07-17T07:56:58.483Z,24.31
2023-07-17T07:57:58.455Z,24.10
2023-07-17T07:58:58.468Z,24.09
2023-07-17T07:59:58.428Z,24.18
2023-07-17T08:00:58.408Z,24.21
2023-07-17T08:01:58.448Z,24.18
2023-07-17T08:02:58.531Z,24.16
2023-07-17T08:03:58.399Z,24.24
2023-07-17T08:04:58.366Z,24.27
2023-07-17T08:05:58.354Z,24.42
2023-07-17T08:06:58.337Z,24.32
2023-07-17T08:07:58.462Z,24.20
2023-07-17T08:08:58.338Z,24.27
2023-07-17T08:09:58.362Z,24.22
2023-07-17T08:10:58.345Z,24.35
2023-07-17T08:11:58.305Z,24.42
2023-07-17T08:12:58.296Z,24.50
2023-07-17T08:13:58.284Z,24.62
2023-07-17T08:14:58.266Z,24.80
2023-07-17T08:15:58.285Z,24.84
2023-07-17T08:16:58.323Z,24.95
2023-07-17T08:17:58.273Z,24.96
2023-07-17T08:18:58.232Z,25.09
2023-07-17T08:19:58.260Z,25.14
2023-07-17T08:20:58.195Z,25.20
2023-07-17T08:21:58.200Z,25.25
2023-07-17T08:22:58.239Z,25.25
2023-07-17T08:23:58.185Z,25.17
2023-07-17T08:24:58.147Z,25.13
2023-07-17T08:25:58.201Z,25.21
2023-07-17T08:27:58.191Z,24.85
2023-07-17T08:28:58.130Z,24.32
2023-07-17T08:29:58.115Z,24.15
2023-07-17T08:30:58.134Z,24.34
2023-07-17T08:31:59.169Z,24.52
2023-07-17T08:32:58.105Z,24.77
2023-07-17T08:33:58.081Z,24.73
2023-07-17T08:34:58.064Z,24.87
2023-07-17T08:35:58.064Z,25.00
2023-07-17T08:36:58.033Z,25.20
2023-07-17T08:37:58.042Z,25.35
2023-07-17T08:38:58.036Z,25.35
2023-07-17T08:39:58.011Z,25.23
2023-07-17T08:40:58.006Z,25.27
2023-07-17T08:41:57.995Z,25.32
2023-07-17T08:42:57.971Z,25.36
2023-07-17T08:43:57.972Z,25.45
2023-07-17T08:44:57.963Z,25.17
2023-07-17T08:46:00.538Z,24.98
2023-07-17T08:46:57.943Z,25.21
2023-07-17T08:47:57.928Z,25.33
2023-07-17T08:48:57.913Z,25.54
2023-07-17T08:49:57.917Z,25.72
2023-07-17T08:50:57.908Z,25.91
2023-07-17T08:51:57.891Z,25.79
2023-07-17T08:52:57.884Z,25.55
2023-07-17T08:54:13.372Z,25.30
2023-07-17T08:54:58.863Z,25.10
2023-07-17T08:55:57.847Z,24.64
2023-07-17T08:56:57.836Z,24.64
2023-07-17T08:57:57.833Z,24.76
2023-07-17T08:58:57.866Z,24.76
2023-07-17T08:59:57.822Z,24.84
2023-07-17T09:00:57.900Z,25.06
2023-07-17T09:01:57.783Z,25.33
2023-07-17T09:02:57.959Z,25.45
2023-07-17T09:03:57.786Z,25.64
2023-07-17T09:04:57.782Z,25.77
2023-07-17T09:05:57.740Z,25.98
2023-07-17T09:06:57.740Z,26.23
2023-07-17T09:07:57.723Z,26.25
2023-07-17T09:08:57.738Z,26.17
2023-07-17T09:09:57.738Z,26.35
2023-07-17T09:10:57.704Z,26.50
2023-07-17T09:11:57.697Z,26.47
2023-07-17T09:12:57.738Z,26.40
2023-07-17T09:13:57.695Z,26.52
2023-07-17T09:14:57.664Z,26.57
2023-07-17T09:15:57.730Z,26.09
2023-07-17T09:16:57.678Z,25.61
2023-07-17T09:17:57.719Z,25.24
2023-07-17T09:18:57.621Z,25.14
2023-07-17T09:19:57.608Z,25.28
2023-07-17T09:20:57.601Z,25.61
2023-07-17T09:21:57.601Z,25.92
2023-07-17T09:22:57.760Z,26.20
2023-07-17T09:23:57.567Z,26.45
2023-07-17T09:24:57.560Z,26.57
2023-07-17T09:25:57.556Z,26.67
2023-07-17T09:26:57.673Z,26.72
2023-07-17T09:27:57.648Z,26.48
2023-07-17T09:28:57.540Z,26.20
2023-07-17T09:29:57.526Z,25.88
2023-07-17T09:30:57.549Z,25.50
2023-07-17T09:31:57.506Z,25.25
2023-07-17T09:32:57.557Z,25.02
2023-07-17T09:33:57.477Z,24.80
2023-07-17T09:34:57.476Z,24.95
2023-07-17T09:35:57.467Z,25.23
2023-07-17T09:36:57.453Z,25.62
2023-07-17T09:37:57.433Z,25.80
2023-07-17T09:38:57.440Z,25.64
2023-07-17T09:39:57.422Z,25.46
2023-07-17T09:40:57.419Z,25.62
2023-07-17T09:41:57.411Z,25.83
2023-07-17T09:42:57.632Z,25.97
2023-07-17T09:43:57.363Z,26.12
2023-07-17T09:44:57.402Z,26.25
2023-07-17T09:45:57.359Z,26.39
2023-07-17T09:46:57.397Z,26.55
2023-07-17T09:47:57.372Z,26.69
2023-07-17T09:48:57.367Z,26.84
2023-07-17T09:49:57.320Z,26.76
2023-07-17T09:50:57.323Z,26.54
2023-07-17T09:51:57.409Z,26.26
2023-07-17T09:52:57.286Z,26.15
2023-07-17T09:53:57.371Z,26.10
2023-07-17T09:54:57.284Z,26.21
2023-07-17T09:55:57.268Z,26.25
2023-07-17T09:56:57.344Z,26.21
2023-07-17T09:57:57.235Z,25.95
2023-07-17T09:58:57.248Z,25.67
2023-07-17T09:59:57.225Z,25.70
2023-07-17T10:00:57.254Z,25.80
2023-07-17T10:01:58.813Z,25.82
2023-07-17T10:02:57.241Z,25.67
2023-07-17T10:03:57.219Z,25.69
2023-07-17T10:04:57.196Z,25.85
2023-07-17T10:05:57.164Z,26.01
2023-07-17T10:06:57.150Z,26.30
2023-07-17T10:07:57.177Z,26.50
2023-07-17T10:08:57.139Z,26.60
2023-07-17T10:09:57.589Z,26.02
2023-07-17T10:10:57.114Z,25.69
2023-07-17T10:11:57.096Z,25.43
2023-07-17T10:12:57.094Z,25.42
2023-07-17T10:13:57.087Z,25.39
2023-07-17T10:14:57.074Z,25.35
2023-07-17T10:15:57.051Z,25.50
2023-07-17T10:16:57.133Z,25.79
2023-07-17T10:17:57.052Z,26.13
2023-07-17T10:18:57.093Z,26.20
2023-07-17T10:19:57.012Z,26.07
2023-07-17T10:20:57.011Z,26.17
2023-07-17T10:21:56.996Z,26.40
2023-07-17T10:22:57.064Z,26.63
2023-07-17T10:23:56.993Z,26.85
2023-07-17T10:24:56.963Z,27.09
2023-07-17T10:25:56.955Z,27.29
2023-07-17T10:26:56.947Z,27.43
2023-07-17T10:27:56.954Z,27.49
2023-07-17T10:28:56.933Z,27.54
2023-07-17T10:29:56.936Z,27.75
2023-07-17T10:30:56.912Z,27.94
2023-07-17T10:31:56.891Z,27.96
2023-07-17T10:32:56.937Z,27.87
2023-07-17T10:33:56.888Z,27.97
2023-07-17T10:34:56.879Z,28.14
2023-07-17T10:35:56.862Z,27.97
2023-07-17T10:36:56.862Z,27.62
2023-07-17T10:37:56.857Z,27.29
2023-07-17T10:38:56.868Z,26.95
2023-07-17T10:39:56.819Z,26.70
2023-07-17T10:40:56.821Z,26.36
2023-07-17T10:41:56.883Z,26.17
2023-07-17T10:42:56.816Z,25.95
2023-07-17T10:44:15.778Z,25.95
2023-07-17T10:44:57.784Z,26.10
2023-07-17T10:45:56.763Z,26.30
2023-07-17T10:46:56.900Z,26.54
2023-07-17T10:47:56.774Z,26.76
2023-07-17T10:48:56.726Z,27.03
2023-07-17T10:49:56.725Z,27.39
2023-07-17T10:50:56.731Z,27.70
2023-07-17T10:51:56.729Z,28.15
2023-07-17T10:52:56.786Z,28.41
2023-07-17T10:53:56.680Z,28.61
2023-07-17T10:54:56.680Z,28.54
2023-07-17T10:55:56.679Z,28.46
2023-07-17T10:56:56.665Z,27.81
2023-07-17T10:57:56.722Z,27.65
2023-07-17T10:58:56.634Z,27.84
2023-07-17T10:59:56.662Z,27.63
2023-07-17T11:00:56.668Z,27.40
2023-07-17T11:01:56.824Z,27.40
2023-07-17T11:02:56.655Z,27.43
2023-07-17T11:03:56.621Z,27.25
2023-07-17T11:04:56.595Z,27.10
2023-07-17T11:05:56.572Z,27.02
2023-07-17T11:06:56.567Z,26.91
2023-07-17T11:07:56.570Z,26.70
2023-07-17T11:08:56.564Z,26.33
2023-07-17T11:09:56.549Z,26.20
2023-07-17T11:10:56.673Z,26.17
2023-07-17T11:11:56.582Z,25.82
2023-07-17T11:12:56.510Z,25.50
2023-07-17T11:13:56.495Z,25.43
2023-07-17T11:14:56.510Z,25.40
2023-07-17T11:15:56.470Z,25.28
2023-07-17T11:16:56.473Z,25.18
2023-07-17T11:17:56.570Z,25.03
2023-07-17T11:18:56.449Z,25.18
2023-07-17T11:19:56.768Z,25.05
2023-07-17T11:20:56.431Z,25.15
2023-07-17T11:21:56.416Z,25.33
2023-07-17T11:22:56.569Z,25.62
2023-07-17T11:23:56.432Z,25.91
2023-07-17T11:24:56.403Z,26.10
2023-07-17T11:25:56.367Z,26.33
2023-07-17T11:26:56.399Z,26.47
2023-07-17T11:27:56.349Z,26.54
2023-07-17T11:28:56.360Z,26.51
2023-07-17T11:29:56.339Z,26.52
2023-07-17T11:30:56.330Z,26.48
2023-07-17T11:31:56.344Z,26.52
2023-07-17T11:32:56.329Z,26.63
2023-07-17T11:33:56.298Z,26.54
2023-07-17T11:34:56.290Z,26.44
2023-07-17T11:35:56.278Z,26.51
2023-07-17T11:36:56.296Z,26.81
2023-07-17T11:37:56.319Z,27.21
2023-07-17T11:38:56.253Z,27.47
2023-07-17T11:39:56.238Z,27.60
2023-07-17T11:40:56.433Z,27.60
2023-07-17T11:41:56.285Z,27.44
2023-07-17T11:42:56.222Z,27.29
2023-07-17T11:43:56.223Z,27.14
2023-07-17T11:44:56.209Z,27.21
2023-07-17T11:45:56.278Z,27.46
2023-07-17T11:46:56.247Z,27.78
2023-07-17T11:47:56.228Z,27.99
2023-07-17T11:48:56.158Z,28.06
2023-07-17T11:49:56.146Z,28.07
2023-07-17T11:50:56.134Z,28.31
2023-07-17T11:51:56.133Z,28.39
2023-07-17T11:52:56.141Z,28.43
2023-07-17T11:53:56.105Z,28.34
2023-07-17T11:54:56.087Z,28.15
2023-07-17T11:55:56.088Z,27.41
2023-07-17T11:56:56.086Z,27.49
2023-07-17T11:58:04.505Z,27.72
2023-07-17T11:58:57.051Z,27.93
2023-07-17T11:59:56.063Z,27.63
2023-07-17T12:00:56.057Z,27.34
2023-07-17T12:01:56.164Z,27.46
2023-07-17T12:02:56.055Z,27.47
2023-07-17T12:03:56.050Z,27.63
2023-07-17T12:04:56.007Z,27.74
2023-07-17T12:05:56.011Z,27.99
2023-07-17T12:06:55.984Z,28.19
2023-07-17T12:07:55.977Z,28.04
2023-07-17T12:08:55.971Z,27.77
2023-07-17T12:09:55.959Z,27.31
2023-07-17T12:10:56.048Z,27.13
2023-07-17T12:11:55.931Z,27.04
2023-07-17T12:12:55.914Z,27.10
2023-07-17T12:13:55.919Z,27.04
2023-07-17T12:14:55.923Z,26.92
2023-07-17T12:15:55.942Z,26.76
2023-07-17T12:16:56.123Z,27.02
2023-07-17T12:17:55.954Z,27.40
2023-07-17T12:18:56.024Z,27.46
2023-07-17T12:19:55.871Z,27.44
2023-07-17T12:20:55.846Z,27.40
2023-07-17T12:21:55.830Z,27.43
2023-07-17T12:22:55.878Z,27.82
2023-07-17T12:23:55.816Z,28.11
2023-07-17T12:24:55.818Z,28.19
2023-07-17T12:25:55.852Z,28.36
2023-07-17T12:26:55.788Z,28.55
2023-07-17T12:27:55.775Z,28.70
2023-07-17T12:28:55.787Z,28.64
2023-07-17T12:29:55.769Z,28.83
2023-07-17T12:30:55.758Z,29.09
2023-07-17T12:31:55.776Z,29.21
2023-07-17T12:32:55.969Z,29.52
2023-07-17T12:33:55.741Z,29.60
2023-07-17T12:34:55.713Z,29.33
2023-07-17T12:35:55.717Z,29.26
2023-07-17T12:36:55.700Z,29.23
2023-07-17T12:37:55.723Z,29.04
2023-07-17T12:38:55.694Z,29.04
2023-07-17T12:39:57.715Z,29.04
2023-07-17T12:40:55.661Z,28.67
2023-07-17T12:41:55.647Z,28.30
2023-07-17T12:42:55.653Z,28.06
2023-07-17T12:43:55.658Z,28.17
2023-07-17T12:44:55.622Z,27.94
2023-07-17T12:45:55.634Z,27.65
2023-07-17T12:46:55.606Z,27.65
2023-07-17T12:47:55.688Z,27.81
2023-07-17T12:48:55.582Z,28.02
2023-07-17T12:49:55.577Z,28.12
2023-07-17T12:50:58.095Z,28.11
2023-07-17T12:51:55.547Z,27.90
2023-07-17T12:52:55.565Z,27.55
2023-07-17T12:53:55.538Z,27.43